sensor_id;sensor_type;location;lat;lon;timestamp;P1;durP1;ratioP1;P2;durP2;ratioP2
76357;SDS011;65185;21.060;105.826;2023-10-31T00:00:36;64.25;;;36.55;;
76357;SDS011;65185;21.060;105.826;2023-10-31T00:03:04;62.95;;;36.88;;
76357;SDS011;65185;21.060;105.826;2023-10-31T00:05:31;63.58;;;35.53;;
76357;SDS011;65185;21.060;105.826;2023-10-31T00:07:58;59.67;;;33.45;;
76357;SDS011;65185;21.060;105.826;2023-10-31T00:10:24;60.05;;;34.17;;
76357;SDS011;65185;21.060;105.826;2023-10-31T00:12:52;61.28;;;34.05;;
76357;SDS011;65185;21.060;105.826;2023-10-31T00:15:24;62.58;;;35.33;;
76357;SDS011;65185;21.060;105.826;2023-10-31T00:17:50;60.33;;;34.15;;
76357;SDS011;65185;21.060;105.826;2023-10-31T00:20:17;54.47;;;31.90;;
76357;SDS011;65185;21.060;105.826;2023-10-31T00:22:45;57.47;;;33.15;;
76357;SDS011;65185;21.060;105.826;2023-10-31T00:25:12;59.45;;;32.83;;
76357;SDS011;65185;21.060;105.826;2023-10-31T00:27:39;59.17;;;33.83;;
76357;SDS011;65185;21.060;105.826;2023-10-31T00:30:06;62.00;;;34.80;;
76357;SDS011;65185;21.060;105.826;2023-10-31T00:32:34;57.03;;;32.60;;
76357;SDS011;65185;21.060;105.826;2023-10-31T00:35:01;55.75;;;32.88;;
76357;SDS011;65185;21.060;105.826;2023-10-31T00:37:28;59.15;;;31.90;;
76357;SDS011;65185;21.060;105.826;2023-10-31T00:39:55;60.67;;;33.22;;
76357;SDS011;65185;21.060;105.826;2023-10-31T00:42:22;63.42;;;33.55;;
76357;SDS011;65185;21.060;105.826;2023-10-31T00:44:49;67.68;;;36.30;;
76357;SDS011;65185;21.060;105.826;2023-10-31T00:47:16;69.82;;;36.35;;
76357;SDS011;65185;21.060;105.826;2023-10-31T00:49:43;67.18;;;35.05;;
76357;SDS011;65185;21.060;105.826;2023-10-31T00:52:10;57.95;;;33.25;;
76357;SDS011;65185;21.060;105.826;2023-10-31T00:54:37;65.70;;;35.42;;
76357;SDS011;65185;21.060;105.826;2023-10-31T00:57:04;58.95;;;33.88;;
76357;SDS011;65185;21.060;105.826;2023-10-31T00:59:30;62.15;;;34.80;;
76357;SDS011;65185;21.060;105.826;2023-10-31T01:01:57;62.72;;;33.83;;
76357;SDS011;65185;21.060;105.826;2023-10-31T01:04:24;54.72;;;32.88;;
76357;SDS011;65185;21.060;105.826;2023-10-31T01:06:51;63.50;;;33.40;;
76357;SDS011;65185;21.060;105.826;2023-10-31T01:09:18;61.72;;;34.83;;
76357;SDS011;65185;21.060;105.826;2023-10-31T01:11:45;55.13;;;32.95;;
76357;SDS011;65185;21.060;105.826;2023-10-31T01:14:12;56.20;;;33.20;;
76357;SDS011;65185;21.060;105.826;2023-10-31T01:16:40;50.45;;;30.63;;
76357;SDS011;65185;21.060;105.826;2023-10-31T01:19:07;57.30;;;31.27;;
76357;SDS011;65185;21.060;105.826;2023-10-31T01:21:34;48.63;;;28.38;;
76357;SDS011;65185;21.060;105.826;2023-10-31T01:24:01;53.80;;;28.52;;
76357;SDS011;65185;21.060;105.826;2023-10-31T01:26:27;50.75;;;27.85;;
76357;SDS011;65185;21.060;105.826;2023-10-31T01:28:54;42.83;;;26.05;;
76357;SDS011;65185;21.060;105.826;2023-10-31T01:31:22;45.55;;;24.77;;
76357;SDS011;65185;21.060;105.826;2023-10-31T01:33:48;39.72;;;22.98;;
76357;SDS011;65185;21.060;105.826;2023-10-31T01:36:15;41.85;;;23.73;;
76357;SDS011;65185;21.060;105.826;2023-10-31T01:38:43;35.00;;;21.05;;
76357;SDS011;65185;21.060;105.826;2023-10-31T01:41:12;34.25;;;20.38;;
76357;SDS011;65185;21.060;105.826;2023-10-31T01:43:39;31.08;;;19.48;;
76357;SDS011;65185;21.060;105.826;2023-10-31T01:46:06;31.20;;;20.20;;
76357;SDS011;65185;21.060;105.826;2023-10-31T01:48:34;30.42;;;18.88;;
76357;SDS011;65185;21.060;105.826;2023-10-31T01:51:02;30.50;;;19.40;;
76357;SDS011;65185;21.060;105.826;2023-10-31T01:56:00;32.95;;;17.98;;
76357;SDS011;65185;21.060;105.826;2023-10-31T01:58:29;38.08;;;19.60;;
76357;SDS011;65185;21.060;105.826;2023-10-31T02:01:00;31.63;;;18.77;;
76357;SDS011;65185;21.060;105.826;2023-10-31T02:03:27;30.50;;;17.05;;
76357;SDS011;65185;21.060;105.826;2023-10-31T02:05:54;32.00;;;18.08;;
76357;SDS011;65185;21.060;105.826;2023-10-31T02:08:21;31.33;;;19.52;;
76357;SDS011;65185;21.060;105.826;2023-10-31T02:10:49;27.15;;;17.35;;
76357;SDS011;65185;21.060;105.826;2023-10-31T02:13:17;31.60;;;19.10;;
76357;SDS011;65185;21.060;105.826;2023-10-31T02:15:45;29.60;;;16.80;;
76357;SDS011;65185;21.060;105.826;2023-10-31T02:18:12;24.48;;;16.13;;
76357;SDS011;65185;21.060;105.826;2023-10-31T02:20:40;28.60;;;17.17;;
76357;SDS011;65185;21.060;105.826;2023-10-31T02:23:07;28.40;;;17.98;;
76357;SDS011;65185;21.060;105.826;2023-10-31T02:25:34;29.25;;;17.67;;
76357;SDS011;65185;21.060;105.826;2023-10-31T02:28:01;25.55;;;16.52;;
76357;SDS011;65185;21.060;105.826;2023-10-31T02:30:28;23.48;;;16.42;;
76357;SDS011;65185;21.060;105.826;2023-10-31T02:32:55;29.05;;;17.92;;
76357;SDS011;65185;21.060;105.826;2023-10-31T02:35:22;31.27;;;19.50;;
76357;SDS011;65185;21.060;105.826;2023-10-31T02:37:49;29.08;;;18.05;;
76357;SDS011;65185;21.060;105.826;2023-10-31T02:40:15;26.30;;;17.67;;
76357;SDS011;65185;21.060;105.826;2023-10-31T02:42:42;39.17;;;19.17;;
76357;SDS011;65185;21.060;105.826;2023-10-31T02:45:10;34.53;;;19.65;;
76357;SDS011;65185;21.060;105.826;2023-10-31T02:47:37;35.85;;;19.65;;
76357;SDS011;65185;21.060;105.826;2023-10-31T02:50:04;29.30;;;18.80;;
76357;SDS011;65185;21.060;105.826;2023-10-31T02:52:32;31.45;;;18.48;;
76357;SDS011;65185;21.060;105.826;2023-10-31T02:54:59;31.13;;;19.33;;
76357;SDS011;65185;21.060;105.826;2023-10-31T02:57:26;30.65;;;18.98;;
76357;SDS011;65185;21.060;105.826;2023-10-31T02:59:53;34.47;;;21.05;;
76357;SDS011;65185;21.060;105.826;2023-10-31T03:02:20;32.40;;;19.98;;
76357;SDS011;65185;21.060;105.826;2023-10-31T03:04:47;37.72;;;21.85;;
76357;SDS011;65185;21.060;105.826;2023-10-31T03:07:14;35.42;;;20.52;;
76357;SDS011;65185;21.060;105.826;2023-10-31T03:09:41;37.63;;;21.20;;
76357;SDS011;65185;21.060;105.826;2023-10-31T03:12:08;36.53;;;20.80;;
76357;SDS011;65185;21.060;105.826;2023-10-31T03:14:36;34.38;;;20.90;;
76357;SDS011;65185;21.060;105.826;2023-10-31T03:17:03;34.92;;;21.25;;
76357;SDS011;65185;21.060;105.826;2023-10-31T03:19:30;34.30;;;20.88;;
76357;SDS011;65185;21.060;105.826;2023-10-31T03:21:56;27.85;;;19.33;;
76357;SDS011;65185;21.060;105.826;2023-10-31T03:24:23;31.95;;;19.52;;
76357;SDS011;65185;21.060;105.826;2023-10-31T03:26:50;28.40;;;17.95;;
76357;SDS011;65185;21.060;105.826;2023-10-31T03:29:17;30.25;;;18.17;;
76357;SDS011;65185;21.060;105.826;2023-10-31T03:31:44;24.17;;;16.13;;
76357;SDS011;65185;21.060;105.826;2023-10-31T03:34:11;28.65;;;18.15;;
76357;SDS011;65185;21.060;105.826;2023-10-31T03:36:38;26.90;;;17.38;;
76357;SDS011;65185;21.060;105.826;2023-10-31T03:39:05;27.58;;;18.30;;
76357;SDS011;65185;21.060;105.826;2023-10-31T03:41:32;26.35;;;17.40;;
76357;SDS011;65185;21.060;105.826;2023-10-31T03:43:59;26.83;;;17.48;;
76357;SDS011;65185;21.060;105.826;2023-10-31T03:46:26;23.98;;;16.15;;
76357;SDS011;65185;21.060;105.826;2023-10-31T03:48:53;26.23;;;16.70;;
76357;SDS011;65185;21.060;105.826;2023-10-31T03:51:20;23.92;;;16.52;;
76357;SDS011;65185;21.060;105.826;2023-10-31T03:53:47;23.75;;;17.27;;
76357;SDS011;65185;21.060;105.826;2023-10-31T03:56:14;27.38;;;17.08;;
76357;SDS011;65185;21.060;105.826;2023-10-31T03:58:42;24.15;;;16.55;;
76357;SDS011;65185;21.060;105.826;2023-10-31T04:01:09;21.17;;;16.23;;
76357;SDS011;65185;21.060;105.826;2023-10-31T04:03:36;23.83;;;16.42;;
76357;SDS011;65185;21.060;105.826;2023-10-31T04:06:03;23.92;;;16.27;;
76357;SDS011;65185;21.060;105.826;2023-10-31T04:08:30;25.23;;;16.92;;
76357;SDS011;65185;21.060;105.826;2023-10-31T04:10:57;21.40;;;15.70;;
76357;SDS011;65185;21.060;105.826;2023-10-31T04:13:24;21.60;;;15.13;;
76357;SDS011;65185;21.060;105.826;2023-10-31T04:15:51;23.98;;;16.17;;
76357;SDS011;65185;21.060;105.826;2023-10-31T04:18:18;18.95;;;14.93;;
76357;SDS011;65185;21.060;105.826;2023-10-31T04:20:46;21.48;;;15.75;;
76357;SDS011;65185;21.060;105.826;2023-10-31T04:23:13;24.02;;;15.45;;
76357;SDS011;65185;21.060;105.826;2023-10-31T04:25:40;23.05;;;15.25;;
76357;SDS011;65185;21.060;105.826;2023-10-31T04:28:07;24.88;;;14.98;;
76357;SDS011;65185;21.060;105.826;2023-10-31T04:30:34;21.52;;;14.90;;
76357;SDS011;65185;21.060;105.826;2023-10-31T04:33:01;21.38;;;14.52;;
76357;SDS011;65185;21.060;105.826;2023-10-31T04:35:29;21.77;;;14.85;;
76357;SDS011;65185;21.060;105.826;2023-10-31T04:37:56;22.92;;;15.40;;
76357;SDS011;65185;21.060;105.826;2023-10-31T04:40:23;21.70;;;14.98;;
76357;SDS011;65185;21.060;105.826;2023-10-31T04:42:50;19.38;;;14.38;;
76357;SDS011;65185;21.060;105.826;2023-10-31T04:45:17;21.95;;;15.65;;
76357;SDS011;65185;21.060;105.826;2023-10-31T04:47:44;20.48;;;14.52;;
76357;SDS011;65185;21.060;105.826;2023-10-31T04:50:11;24.90;;;16.55;;
76357;SDS011;65185;21.060;105.826;2023-10-31T04:52:38;21.50;;;15.15;;
76357;SDS011;65185;21.060;105.826;2023-10-31T04:55:05;25.25;;;16.95;;
76357;SDS011;65185;21.060;105.826;2023-10-31T04:57:33;21.67;;;15.43;;
76357;SDS011;65185;21.060;105.826;2023-10-31T05:00:00;22.45;;;15.23;;
76357;SDS011;65185;21.060;105.826;2023-10-31T05:02:31;26.65;;;15.15;;
76357;SDS011;65185;21.060;105.826;2023-10-31T05:04:58;20.42;;;15.10;;
76357;SDS011;65185;21.060;105.826;2023-10-31T05:07:25;22.75;;;15.65;;
76357;SDS011;65185;21.060;105.826;2023-10-31T05:09:52;20.90;;;15.90;;
76357;SDS011;65185;21.060;105.826;2023-10-31T05:12:19;23.67;;;16.33;;
76357;SDS011;65185;21.060;105.826;2023-10-31T05:14:46;25.50;;;16.15;;
76357;SDS011;65185;21.060;105.826;2023-10-31T05:17:13;21.13;;;15.77;;
76357;SDS011;65185;21.060;105.826;2023-10-31T05:19:40;23.33;;;16.05;;
76357;SDS011;65185;21.060;105.826;2023-10-31T05:22:07;21.45;;;15.77;;
76357;SDS011;65185;21.060;105.826;2023-10-31T05:24:35;24.73;;;16.83;;
76357;SDS011;65185;21.060;105.826;2023-10-31T05:27:03;23.95;;;16.90;;
76357;SDS011;65185;21.060;105.826;2023-10-31T05:29:33;22.65;;;15.90;;
76357;SDS011;65185;21.060;105.826;2023-10-31T05:32:00;25.65;;;17.55;;
76357;SDS011;65185;21.060;105.826;2023-10-31T05:34:27;23.75;;;16.92;;
76357;SDS011;65185;21.060;105.826;2023-10-31T05:36:54;24.75;;;17.08;;
76357;SDS011;65185;21.060;105.826;2023-10-31T05:39:21;23.60;;;16.90;;
76357;SDS011;65185;21.060;105.826;2023-10-31T05:41:48;23.90;;;17.73;;
76357;SDS011;65185;21.060;105.826;2023-10-31T05:44:15;26.33;;;16.35;;
76357;SDS011;65185;21.060;105.826;2023-10-31T05:46:42;22.42;;;16.35;;
76357;SDS011;65185;21.060;105.826;2023-10-31T05:49:10;23.40;;;17.30;;
76357;SDS011;65185;21.060;105.826;2023-10-31T05:51:37;22.77;;;17.58;;
76357;SDS011;65185;21.060;105.826;2023-10-31T05:54:06;23.83;;;17.13;;
76357;SDS011;65185;21.060;105.826;2023-10-31T05:57:02;19.42;;;14.82;;
76357;SDS011;65185;21.060;105.826;2023-10-31T05:59:29;21.63;;;15.82;;
76357;SDS011;65185;21.060;105.826;2023-10-31T06:01:58;20.77;;;14.27;;
76357;SDS011;65185;21.060;105.826;2023-10-31T06:04:25;20.25;;;14.82;;
76357;SDS011;65185;21.060;105.826;2023-10-31T06:06:53;22.33;;;14.82;;
76357;SDS011;65185;21.060;105.826;2023-10-31T06:09:20;20.52;;;14.68;;
76357;SDS011;65185;21.060;105.826;2023-10-31T06:11:47;21.98;;;15.40;;
76357;SDS011;65185;21.060;105.826;2023-10-31T06:14:14;23.17;;;16.10;;
76357;SDS011;65185;21.060;105.826;2023-10-31T06:16:42;21.25;;;14.75;;
76357;SDS011;65185;21.060;105.826;2023-10-31T06:19:10;19.52;;;15.13;;
76357;SDS011;65185;21.060;105.826;2023-10-31T06:21:37;23.20;;;16.10;;
76357;SDS011;65185;21.060;105.826;2023-10-31T06:24:05;22.60;;;14.75;;
76357;SDS011;65185;21.060;105.826;2023-10-31T06:26:33;20.15;;;15.25;;
76357;SDS011;65185;21.060;105.826;2023-10-31T06:29:01;22.42;;;16.70;;
76357;SDS011;65185;21.060;105.826;2023-10-31T06:31:29;23.15;;;16.30;;
76357;SDS011;65185;21.060;105.826;2023-10-31T06:33:56;20.92;;;14.38;;
76357;SDS011;65185;21.060;105.826;2023-10-31T06:36:23;22.45;;;17.25;;
76357;SDS011;65185;21.060;105.826;2023-10-31T06:38:50;24.40;;;16.48;;
76357;SDS011;65185;21.060;105.826;2023-10-31T06:41:17;22.95;;;17.00;;
76357;SDS011;65185;21.060;105.826;2023-10-31T06:43:44;22.23;;;15.48;;
76357;SDS011;65185;21.060;105.826;2023-10-31T06:46:11;22.50;;;16.23;;
76357;SDS011;65185;21.060;105.826;2023-10-31T06:48:40;23.40;;;15.82;;
76357;SDS011;65185;21.060;105.826;2023-10-31T06:51:07;20.75;;;14.68;;
76357;SDS011;65185;21.060;105.826;2023-10-31T06:53:35;20.10;;;15.10;;
76357;SDS011;65185;21.060;105.826;2023-10-31T06:56:02;21.45;;;16.48;;
76357;SDS011;65185;21.060;105.826;2023-10-31T06:58:30;21.85;;;15.48;;
76357;SDS011;65185;21.060;105.826;2023-10-31T07:00:56;23.73;;;16.45;;
76357;SDS011;65185;21.060;105.826;2023-10-31T07:03:25;20.83;;;15.68;;
76357;SDS011;65185;21.060;105.826;2023-10-31T07:05:52;26.40;;;16.42;;
76357;SDS011;65185;21.060;105.826;2023-10-31T07:08:22;20.25;;;15.43;;
76357;SDS011;65185;21.060;105.826;2023-10-31T07:11:00;24.38;;;15.32;;
76357;SDS011;65185;21.060;105.826;2023-10-31T07:13:27;18.58;;;13.80;;
76357;SDS011;65185;21.060;105.826;2023-10-31T07:15:54;20.13;;;15.40;;
76357;SDS011;65185;21.060;105.826;2023-10-31T07:18:21;19.58;;;14.27;;
76357;SDS011;65185;21.060;105.826;2023-10-31T07:20:48;23.40;;;15.20;;
76357;SDS011;65185;21.060;105.826;2023-10-31T07:23:14;19.98;;;14.25;;
76357;SDS011;65185;21.060;105.826;2023-10-31T07:25:41;22.48;;;14.75;;
76357;SDS011;65185;21.060;105.826;2023-10-31T07:28:09;20.70;;;14.63;;
76357;SDS011;65185;21.060;105.826;2023-10-31T07:30:35;19.40;;;14.50;;
76357;SDS011;65185;21.060;105.826;2023-10-31T07:33:02;20.20;;;14.48;;
76357;SDS011;65185;21.060;105.826;2023-10-31T07:35:29;21.75;;;14.68;;
76357;SDS011;65185;21.060;105.826;2023-10-31T07:37:56;21.80;;;14.43;;
76357;SDS011;65185;21.060;105.826;2023-10-31T07:40:22;20.13;;;13.73;;
76357;SDS011;65185;21.060;105.826;2023-10-31T07:42:49;17.05;;;12.93;;
76357;SDS011;65185;21.060;105.826;2023-10-31T07:45:16;19.65;;;14.05;;
76357;SDS011;65185;21.060;105.826;2023-10-31T07:47:43;18.55;;;13.35;;
76357;SDS011;65185;21.060;105.826;2023-10-31T07:50:09;18.13;;;12.95;;
76357;SDS011;65185;21.060;105.826;2023-10-31T07:52:36;18.02;;;12.88;;
76357;SDS011;65185;21.060;105.826;2023-10-31T07:55:03;18.27;;;13.27;;
76357;SDS011;65185;21.060;105.826;2023-10-31T07:57:31;17.05;;;12.07;;
76357;SDS011;65185;21.060;105.826;2023-10-31T07:59:57;16.50;;;12.30;;
76357;SDS011;65185;21.060;105.826;2023-10-31T08:02:24;19.60;;;12.98;;
76357;SDS011;65185;21.060;105.826;2023-10-31T08:04:51;20.27;;;13.73;;
76357;SDS011;65185;21.060;105.826;2023-10-31T08:07:17;19.70;;;12.90;;
76357;SDS011;65185;21.060;105.826;2023-10-31T08:09:44;21.70;;;13.45;;
76357;SDS011;65185;21.060;105.826;2023-10-31T08:12:11;19.88;;;13.35;;
76357;SDS011;65185;21.060;105.826;2023-10-31T08:14:38;18.23;;;12.93;;
76357;SDS011;65185;21.060;105.826;2023-10-31T08:17:05;19.20;;;13.05;;
76357;SDS011;65185;21.060;105.826;2023-10-31T08:19:31;20.58;;;14.52;;
76357;SDS011;65185;21.060;105.826;2023-10-31T08:21:58;23.60;;;14.18;;
76357;SDS011;65185;21.060;105.826;2023-10-31T08:24:25;19.17;;;14.20;;
76357;SDS011;65185;21.060;105.826;2023-10-31T08:26:52;18.38;;;13.27;;
76357;SDS011;65185;21.060;105.826;2023-10-31T08:29:18;21.20;;;13.35;;
76357;SDS011;65185;21.060;105.826;2023-10-31T08:31:45;20.52;;;13.48;;
76357;SDS011;65185;21.060;105.826;2023-10-31T08:34:12;21.20;;;14.48;;
76357;SDS011;65185;21.060;105.826;2023-10-31T08:36:39;23.13;;;14.95;;
76357;SDS011;65185;21.060;105.826;2023-10-31T08:39:06;23.98;;;14.77;;
76357;SDS011;65185;21.060;105.826;2023-10-31T08:41:33;21.20;;;13.80;;
76357;SDS011;65185;21.060;105.826;2023-10-31T08:43:59;19.88;;;13.85;;
76357;SDS011;65185;21.060;105.826;2023-10-31T08:46:28;19.23;;;14.45;;
76357;SDS011;65185;21.060;105.826;2023-10-31T08:48:55;19.77;;;14.93;;
76357;SDS011;65185;21.060;105.826;2023-10-31T08:51:22;20.83;;;14.05;;
76357;SDS011;65185;21.060;105.826;2023-10-31T08:53:49;20.55;;;13.93;;
76357;SDS011;65185;21.060;105.826;2023-10-31T08:56:16;24.48;;;14.70;;
76357;SDS011;65185;21.060;105.826;2023-10-31T08:58:44;19.58;;;14.50;;
76357;SDS011;65185;21.060;105.826;2023-10-31T09:01:11;19.15;;;13.70;;
76357;SDS011;65185;21.060;105.826;2023-10-31T09:03:38;20.10;;;13.48;;
76357;SDS011;65185;21.060;105.826;2023-10-31T09:06:04;18.02;;;13.00;;
76357;SDS011;65185;21.060;105.826;2023-10-31T09:08:31;17.65;;;12.75;;
76357;SDS011;65185;21.060;105.826;2023-10-31T09:10:59;22.88;;;13.73;;
76357;SDS011;65185;21.060;105.826;2023-10-31T09:13:27;19.33;;;13.52;;
76357;SDS011;65185;21.060;105.826;2023-10-31T09:15:54;23.27;;;14.77;;
76357;SDS011;65185;21.060;105.826;2023-10-31T09:18:20;22.35;;;15.02;;
76357;SDS011;65185;21.060;105.826;2023-10-31T09:20:47;19.20;;;13.80;;
76357;SDS011;65185;21.060;105.826;2023-10-31T09:23:14;19.83;;;14.25;;
76357;SDS011;65185;21.060;105.826;2023-10-31T09:25:43;26.67;;;15.38;;
76357;SDS011;65185;21.060;105.826;2023-10-31T09:28:10;22.73;;;15.55;;
76357;SDS011;65185;21.060;105.826;2023-10-31T09:30:36;20.20;;;13.88;;
76357;SDS011;65185;21.060;105.826;2023-10-31T09:33:03;21.55;;;14.25;;
76357;SDS011;65185;21.060;105.826;2023-10-31T09:35:30;19.33;;;14.35;;
76357;SDS011;65185;21.060;105.826;2023-10-31T09:37:56;19.58;;;14.60;;
76357;SDS011;65185;21.060;105.826;2023-10-31T09:40:23;19.15;;;14.02;;
76357;SDS011;65185;21.060;105.826;2023-10-31T09:42:50;20.08;;;14.85;;
76357;SDS011;65185;21.060;105.826;2023-10-31T09:45:17;21.98;;;13.88;;
76357;SDS011;65185;21.060;105.826;2023-10-31T09:47:44;21.02;;;14.85;;
76357;SDS011;65185;21.060;105.826;2023-10-31T09:50:11;21.50;;;15.00;;
76357;SDS011;65185;21.060;105.826;2023-10-31T09:52:38;22.30;;;14.85;;
76357;SDS011;65185;21.060;105.826;2023-10-31T09:55:05;20.50;;;14.40;;
76357;SDS011;65185;21.060;105.826;2023-10-31T09:57:33;20.52;;;14.18;;
76357;SDS011;65185;21.060;105.826;2023-10-31T10:00:00;24.58;;;15.32;;
76357;SDS011;65185;21.060;105.826;2023-10-31T10:02:27;21.52;;;15.18;;
76357;SDS011;65185;21.060;105.826;2023-10-31T10:04:54;22.35;;;15.73;;
76357;SDS011;65185;21.060;105.826;2023-10-31T10:07:20;20.83;;;14.68;;
76357;SDS011;65185;21.060;105.826;2023-10-31T10:09:47;20.30;;;14.80;;
76357;SDS011;65185;21.060;105.826;2023-10-31T10:12:16;21.10;;;14.15;;
76357;SDS011;65185;21.060;105.826;2023-10-31T10:14:46;21.25;;;15.02;;
76357;SDS011;65185;21.060;105.826;2023-10-31T10:17:17;22.55;;;15.52;;
76357;SDS011;65185;21.060;105.826;2023-10-31T10:19:46;21.35;;;15.70;;
76357;SDS011;65185;21.060;105.826;2023-10-31T10:22:13;22.52;;;15.82;;
76357;SDS011;65185;21.060;105.826;2023-10-31T10:24:40;22.58;;;15.70;;
76357;SDS011;65185;21.060;105.826;2023-10-31T10:27:08;22.52;;;15.68;;
76357;SDS011;65185;21.060;105.826;2023-10-31T10:29:35;27.13;;;17.40;;
76357;SDS011;65185;21.060;105.826;2023-10-31T10:32:06;27.15;;;16.52;;
76357;SDS011;65185;21.060;105.826;2023-10-31T10:34:37;23.88;;;16.77;;
76357;SDS011;65185;21.060;105.826;2023-10-31T10:37:06;25.33;;;17.55;;
76357;SDS011;65185;21.060;105.826;2023-10-31T10:39:34;26.20;;;17.50;;
76357;SDS011;65185;21.060;105.826;2023-10-31T10:42:07;27.75;;;18.30;;
76357;SDS011;65185;21.060;105.826;2023-10-31T10:44:38;25.88;;;18.08;;
76357;SDS011;65185;21.060;105.826;2023-10-31T10:47:09;28.60;;;18.88;;
76357;SDS011;65185;21.060;105.826;2023-10-31T10:49:40;30.20;;;20.05;;
76357;SDS011;65185;21.060;105.826;2023-10-31T10:54:44;31.85;;;21.08;;
76357;SDS011;65185;21.060;105.826;2023-10-31T11:00:35;36.30;;;22.58;;
76357;SDS011;65185;21.060;105.826;2023-10-31T11:03:02;32.50;;;21.00;;
76357;SDS011;65185;21.060;105.826;2023-10-31T11:05:30;30.45;;;20.88;;
76357;SDS011;65185;21.060;105.826;2023-10-31T11:07:58;33.53;;;21.90;;
76357;SDS011;65185;21.060;105.826;2023-10-31T11:10:26;31.85;;;20.75;;
76357;SDS011;65185;21.060;105.826;2023-10-31T11:12:55;29.20;;;20.48;;
76357;SDS011;65185;21.060;105.826;2023-10-31T11:15:22;30.08;;;20.35;;
76357;SDS011;65185;21.060;105.826;2023-10-31T11:17:51;29.30;;;19.25;;
76357;SDS011;65185;21.060;105.826;2023-10-31T11:20:21;28.27;;;19.90;;
76357;SDS011;65185;21.060;105.826;2023-10-31T11:22:48;29.27;;;19.55;;
76357;SDS011;65185;21.060;105.826;2023-10-31T11:25:25;29.20;;;19.35;;
76357;SDS011;65185;21.060;105.826;2023-10-31T11:27:52;29.38;;;20.35;;
76357;SDS011;65185;21.060;105.826;2023-10-31T11:30:27;31.33;;;19.17;;
76357;SDS011;65185;21.060;105.826;2023-10-31T11:32:55;30.83;;;20.20;;
76357;SDS011;65185;21.060;105.826;2023-10-31T11:35:24;34.80;;;21.33;;
76357;SDS011;65185;21.060;105.826;2023-10-31T11:38:04;30.75;;;21.05;;
76357;SDS011;65185;21.060;105.826;2023-10-31T11:40:32;32.38;;;20.35;;
76357;SDS011;65185;21.060;105.826;2023-10-31T11:43:04;30.35;;;20.90;;
76357;SDS011;65185;21.060;105.826;2023-10-31T11:45:43;32.08;;;20.75;;
76357;SDS011;65185;21.060;105.826;2023-10-31T11:48:13;31.95;;;21.67;;
76357;SDS011;65185;21.060;105.826;2023-10-31T11:50:40;33.85;;;21.23;;
76357;SDS011;65185;21.060;105.826;2023-10-31T11:53:10;34.95;;;22.63;;
76357;SDS011;65185;21.060;105.826;2023-10-31T11:55:47;32.20;;;21.70;;
76357;SDS011;65185;21.060;105.826;2023-10-31T11:58:15;34.83;;;22.13;;
76357;SDS011;65185;21.060;105.826;2023-10-31T12:00:43;33.55;;;21.63;;
76357;SDS011;65185;21.060;105.826;2023-10-31T12:03:11;34.60;;;23.30;;
76357;SDS011;65185;21.060;105.826;2023-10-31T12:05:38;31.20;;;21.00;;
76357;SDS011;65185;21.060;105.826;2023-10-31T12:08:05;35.63;;;22.70;;
76357;SDS011;65185;21.060;105.826;2023-10-31T12:10:32;38.72;;;24.38;;
76357;SDS011;65185;21.060;105.826;2023-10-31T12:12:59;34.60;;;23.05;;
76357;SDS011;65185;21.060;105.826;2023-10-31T12:15:25;35.38;;;24.02;;
76357;SDS011;65185;21.060;105.826;2023-10-31T12:17:57;40.95;;;25.27;;
76357;SDS011;65185;21.060;105.826;2023-10-31T12:20:25;38.72;;;24.02;;
76357;SDS011;65185;21.060;105.826;2023-10-31T12:23:02;41.90;;;24.48;;
76357;SDS011;65185;21.060;105.826;2023-10-31T12:25:29;39.70;;;26.00;;
76357;SDS011;65185;21.060;105.826;2023-10-31T12:28:00;38.10;;;25.73;;
76357;SDS011;65185;21.060;105.826;2023-10-31T12:30:27;39.83;;;25.67;;
76357;SDS011;65185;21.060;105.826;2023-10-31T12:32:54;41.70;;;26.75;;
76357;SDS011;65185;21.060;105.826;2023-10-31T12:35:25;46.70;;;29.15;;
76357;SDS011;65185;21.060;105.826;2023-10-31T12:37:52;43.30;;;28.17;;
76357;SDS011;65185;21.060;105.826;2023-10-31T12:40:21;41.65;;;27.88;;
76357;SDS011;65185;21.060;105.826;2023-10-31T12:42:49;42.72;;;28.40;;
76357;SDS011;65185;21.060;105.826;2023-10-31T12:45:17;43.40;;;28.95;;
76357;SDS011;65185;21.060;105.826;2023-10-31T12:47:44;44.25;;;28.80;;
76357;SDS011;65185;21.060;105.826;2023-10-31T12:50:14;43.13;;;29.33;;
76357;SDS011;65185;21.060;105.826;2023-10-31T12:52:54;44.67;;;28.77;;
76357;SDS011;65185;21.060;105.826;2023-10-31T12:55:26;44.92;;;28.80;;
76357;SDS011;65185;21.060;105.826;2023-10-31T12:57:57;43.35;;;28.80;;
76357;SDS011;65185;21.060;105.826;2023-10-31T13:00:30;42.35;;;29.80;;
76357;SDS011;65185;21.060;105.826;2023-10-31T13:03:00;44.15;;;30.98;;
76357;SDS011;65185;21.060;105.826;2023-10-31T13:05:35;43.45;;;29.20;;
76357;SDS011;65185;21.060;105.826;2023-10-31T13:08:04;49.45;;;31.65;;
76357;SDS011;65185;21.060;105.826;2023-10-31T13:10:45;46.67;;;30.60;;
76357;SDS011;65185;21.060;105.826;2023-10-31T13:13:12;44.22;;;29.95;;
76357;SDS011;65185;21.060;105.826;2023-10-31T13:15:39;45.50;;;30.20;;
76357;SDS011;65185;21.060;105.826;2023-10-31T13:18:05;43.05;;;30.33;;
76357;SDS011;65185;21.060;105.826;2023-10-31T13:20:36;46.35;;;30.98;;
76357;SDS011;65185;21.060;105.826;2023-10-31T13:23:03;45.95;;;31.00;;
76357;SDS011;65185;21.060;105.826;2023-10-31T13:25:34;45.53;;;31.50;;
76357;SDS011;65185;21.060;105.826;2023-10-31T13:28:02;49.42;;;32.67;;
76357;SDS011;65185;21.060;105.826;2023-10-31T13:30:32;48.97;;;32.05;;
76357;SDS011;65185;21.060;105.826;2023-10-31T13:33:03;51.13;;;33.03;;
76357;SDS011;65185;21.060;105.826;2023-10-31T13:35:30;47.85;;;31.50;;
76357;SDS011;65185;21.060;105.826;2023-10-31T13:37:58;45.00;;;30.63;;
76357;SDS011;65185;21.060;105.826;2023-10-31T13:40:26;43.75;;;31.30;;
76357;SDS011;65185;21.060;105.826;2023-10-31T13:43:14;43.75;;;31.25;;
76357;SDS011;65185;21.060;105.826;2023-10-31T13:45:41;47.40;;;32.25;;
76357;SDS011;65185;21.060;105.826;2023-10-31T13:48:08;52.70;;;35.22;;
76357;SDS011;65185;21.060;105.826;2023-10-31T13:50:36;50.50;;;32.80;;
76357;SDS011;65185;21.060;105.826;2023-10-31T13:53:03;51.72;;;33.50;;
76357;SDS011;65185;21.060;105.826;2023-10-31T13:55:33;49.30;;;33.85;;
76357;SDS011;65185;21.060;105.826;2023-10-31T13:58:01;46.78;;;32.15;;
76357;SDS011;65185;21.060;105.826;2023-10-31T14:00:27;46.40;;;31.42;;
76357;SDS011;65185;21.060;105.826;2023-10-31T14:02:54;44.95;;;31.70;;
76357;SDS011;65185;21.060;105.826;2023-10-31T14:05:21;46.92;;;31.08;;
76357;SDS011;65185;21.060;105.826;2023-10-31T14:07:49;43.00;;;29.77;;